Terminal Aerodrome Forecast
Issued by NWS Lake Charles, LA

Home | Current Version | Previous Version | Text Only | Print | Product List | Glossary On
Versions: 1 2 3 4 5 6 7 8 9 10 11 12 13 14 15
000
FTUS44 KLCH 251418 AAB
TAFLFT
TAF AMD
KLFT 251418Z 2514/2612 18007KT P6SM BKN015 OVC025
      TEMPO 2514/2518 SCT025 BKN035
     FM251800 19010G18KT P6SM SCT025 BKN035
     FM260000 18006KT P6SM SCT250
     FM260600 VRB03KT P6SM BKN015=

USA.gov is the U.S. government's official web portal to all federal, state and local government web resources and services.